This is the latest recevied weather packets stored in our database for station/object IW1QQG-13. If no packets are shown the sender has not sent any weather packets the latest 10 day(s).
| Time | Temp. | Humidity | Pressure | Rain* | Wind** | Luminosity | Snow |
|---|---|---|---|---|---|---|---|
| 1777668025 | 15.56° C | 51% | 1024.7 hPa | 0 mm | - | 0 W/m² | - |
| 1777667425 | 15.56° C | 51% | 1025.1 hPa | 0 mm | - | 0 W/m² | - |
| 1777666825 | 14.44° C | 57% | 1024.7 hPa | 0 mm | - | 0 W/m² | - |
| 1777666225 | 14.44° C | 59% | 1024.7 hPa | 0 mm | - | 0 W/m² | - |
| 1777665625 | 15° C | 59% | 1024.4 hPa | 0 mm | - | 0 W/m² | - |
| 1777665025 | 15° C | 58% | 1024.4 hPa | 0 mm | - | 0 W/m² | - |
| 1777664425 | 15° C | 60% | 1024.4 hPa | 0 mm | - | 0 W/m² | - |
| 1777663826 | 15° C | 60% | 1024 hPa | 0 mm | - | 0 W/m² | - |
| 1777663225 | 15° C | 60% | 1024 hPa | 0 mm | - | 0 W/m² | - |
| 1777662625 | 15° C | 58% | 1024 hPa | 0 mm | - | 0 W/m² | - |
| 1777662026 | 15° C | 66% | 1024 hPa | 0 mm | - | 0 W/m² | - |
| 1777661425 | 15° C | 65% | 1023.7 hPa | 0 mm | - | 0 W/m² | - |
| 1777660825 | 15.56° C | 62% | 1023.7 hPa | 0 mm | - | 1 W/m² | - |
| 1777660225 | 15° C | 69% | 1023.7 hPa | 0 mm | - | 3 W/m² | - |
| 1777659625 | 15.56° C | 69% | 1023.7 hPa | 0 mm | - | 7 W/m² | - |
| 1777659025 | 16.11° C | 69% | 1023.4 hPa | 0 mm | - | 13 W/m² | - |
| 1777658425 | 15.56° C | 72% | 1023.4 hPa | 0 mm | - | 19 W/m² | - |
| 1777657825 | 15.56° C | 71% | 1023.4 hPa | 0 mm | - | 26 W/m² | - |
| 1777657225 | 16.11° C | 70% | 1023.4 hPa | 0 mm | - | 35 W/m² | - |
| 1777656625 | 16.11° C | 69% | 1023.4 hPa | 0 mm | - | 45 W/m² | - |
| 1777656025 | 16.67° C | 68% | 1023.4 hPa | 0 mm | - | 55 W/m² | - |
| 1777655425 | 16.67° C | 67% | 1023.4 hPa | 0 mm | - | 62 W/m² | - |
| 1777654825 | 16.67° C | 66% | 1023.4 hPa | 0 mm | - | 66 W/m² | - |
| 1777654225 | 16.67° C | 67% | 1023.4 hPa | 0 mm | - | 72 W/m² | - |
| 1777653625 | 16.67° C | 65% | 1023.4 hPa | 0 mm | - | 76 W/m² | - |
* Rain latest hour (hover to see other rain measurements)
** Current wind speed in m/s (hover to see current wind gust speed)